sensor_id;sensor_type;location;lat;lon;timestamp;pressure;altitude;pressure_sealevel;temperature;humidity
19831;BME280;10076;52.008;4.708;2023-03-01T00:01:10;103213.72;;;5.38;100.00
19831;BME280;10076;52.008;4.708;2023-03-01T00:03:36;103205.06;;;5.33;100.00
19831;BME280;10076;52.008;4.708;2023-03-01T00:06:02;103203.44;;;5.23;100.00
19831;BME280;10076;52.008;4.708;2023-03-01T00:08:28;103205.06;;;5.33;100.00
19831;BME280;10076;52.008;4.708;2023-03-01T00:11:05;103203.41;;;5.28;100.00
19831;BME280;10076;52.008;4.708;2023-03-01T00:13:31;103201.69;;;5.22;100.00
19831;BME280;10076;52.008;4.708;2023-03-01T00:15:56;103190.34;;;5.23;100.00
19831;BME280;10076;52.008;4.708;2023-03-01T00:18:22;103196.72;;;4.98;100.00
19831;BME280;10076;52.008;4.708;2023-03-01T00:20:52;103186.88;;;5.20;100.00
19831;BME280;10076;52.008;4.708;2023-03-01T00:23:18;103193.97;;;5.13;100.00
19831;BME280;10076;52.008;4.708;2023-03-01T00:25:43;103192.09;;;5.24;100.00
19831;BME280;10076;52.008;4.708;2023-03-01T00:28:09;103190.31;;;5.25;100.00
19831;BME280;10076;52.008;4.708;2023-03-01T00:30:34;103195.66;;;5.17;100.00
19831;BME280;10076;52.008;4.708;2023-03-01T00:32:59;103189.63;;;5.09;100.00
19831;BME280;10076;52.008;4.708;2023-03-01T00:35:25;103181.75;;;5.12;100.00
19831;BME280;10076;52.008;4.708;2023-03-01T00:37:50;103186.09;;;5.13;100.00
19831;BME280;10076;52.008;4.708;2023-03-01T00:40:29;103182.78;;;4.98;100.00
19831;BME280;10076;52.008;4.708;2023-03-01T00:42:55;103185.34;;;5.02;100.00
19831;BME280;10076;52.008;4.708;2023-03-01T00:45:20;103185.38;;;4.99;100.00
19831;BME280;10076;52.008;4.708;2023-03-01T00:47:46;103187.06;;;5.03;100.00
19831;BME280;10076;52.008;4.708;2023-03-01T00:50:12;103188.03;;;4.96;100.00
19831;BME280;10076;52.008;4.708;2023-03-01T00:52:37;103183.66;;;4.97;100.00
19831;BME280;10076;52.008;4.708;2023-03-01T00:55:04;103193.22;;;4.99;100.00
19831;BME280;10076;52.008;4.708;2023-03-01T00:57:29;103182.84;;;4.89;100.00
19831;BME280;10076;52.008;4.708;2023-03-01T00:59:55;103180.19;;;4.93;100.00
19831;BME280;10076;52.008;4.708;2023-03-01T01:02:20;103177.63;;;4.90;100.00
19831;BME280;10076;52.008;4.708;2023-03-01T01:04:46;103187.25;;;4.87;100.00
19831;BME280;10076;52.008;4.708;2023-03-01T01:07:12;103186.50;;;4.75;100.00
19831;BME280;10076;52.008;4.708;2023-03-01T01:09:38;103187.47;;;4.65;100.00
19831;BME280;10076;52.008;4.708;2023-03-01T01:12:03;103188.22;;;4.76;100.00
19831;BME280;10076;52.008;4.708;2023-03-01T01:14:29;103183.81;;;4.82;100.00
19831;BME280;10076;52.008;4.708;2023-03-01T01:16:55;103188.22;;;4.78;100.00
19831;BME280;10076;52.008;4.708;2023-03-01T01:19:21;103189.97;;;4.77;100.00
19831;BME280;10076;52.008;4.708;2023-03-01T01:21:47;103186.56;;;4.70;100.00
19831;BME280;10076;52.008;4.708;2023-03-01T01:24:14;103187.47;;;4.65;100.00
19831;BME280;10076;52.008;4.708;2023-03-01T01:26:40;103177.03;;;4.63;100.00
19831;BME280;10076;52.008;4.708;2023-03-01T01:29:06;103174.31;;;4.74;100.00
19831;BME280;10076;52.008;4.708;2023-03-01T01:31:33;103162.09;;;4.71;100.00
19831;BME280;10076;52.008;4.708;2023-03-01T01:34:00;103162.16;;;4.67;100.00
19831;BME280;10076;52.008;4.708;2023-03-01T01:36:26;103152.59;;;4.64;100.00
19831;BME280;10076;52.008;4.708;2023-03-01T01:38:52;103148.28;;;4.59;100.00
19831;BME280;10076;52.008;4.708;2023-03-01T01:41:18;103147.31;;;4.69;100.00
19831;BME280;10076;52.008;4.708;2023-03-01T01:43:49;103136.00;;;4.65;100.00
19831;BME280;10076;52.008;4.708;2023-03-01T01:46:37;103137.91;;;4.51;100.00
19831;BME280;10076;52.008;4.708;2023-03-01T01:49:06;103130.97;;;4.46;100.00
19831;BME280;10076;52.008;4.708;2023-03-01T01:51:44;103127.50;;;4.45;100.00
19831;BME280;10076;52.008;4.708;2023-03-01T01:54:27;103132.63;;;4.53;100.00
19831;BME280;10076;52.008;4.708;2023-03-01T01:57:00;103131.75;;;4.55;100.00
19831;BME280;10076;52.008;4.708;2023-03-01T01:59:28;103122.19;;;4.53;100.00
19831;BME280;10076;52.008;4.708;2023-03-01T02:01:56;103128.28;;;4.53;100.00
19831;BME280;10076;52.008;4.708;2023-03-01T02:04:24;103125.66;;;4.55;100.00
19831;BME280;10076;52.008;4.708;2023-03-01T02:07:17;103130.00;;;4.56;100.00
19831;BME280;10076;52.008;4.708;2023-03-01T02:09:47;103133.53;;;4.53;100.00
19831;BME280;10076;52.008;4.708;2023-03-01T02:12:15;103136.19;;;4.46;100.00
19831;BME280;10076;52.008;4.708;2023-03-01T02:14:42;103133.56;;;4.46;100.00
19831;BME280;10076;52.008;4.708;2023-03-01T02:17:07;103124.81;;;4.51;100.00
19831;BME280;10076;52.008;4.708;2023-03-01T02:28:03;103114.50;;;4.38;100.00
19831;BME280;10076;52.008;4.708;2023-03-01T02:30:33;103111.06;;;4.33;100.00
19831;BME280;10076;52.008;4.708;2023-03-01T02:33:00;103107.56;;;4.31;100.00
19831;BME280;10076;52.008;4.708;2023-03-01T02:35:33;103114.50;;;4.38;100.00
19831;BME280;10076;52.008;4.708;2023-03-01T02:38:01;103121.50;;;4.33;100.00
19831;BME280;10076;52.008;4.708;2023-03-01T02:40:28;103111.03;;;4.31;100.00
19831;BME280;10076;52.008;4.708;2023-03-01T02:42:57;103111.97;;;4.26;100.00
19831;BME280;10076;52.008;4.708;2023-03-01T02:45:23;103117.16;;;4.32;100.00
19831;BME280;10076;52.008;4.708;2023-03-01T02:47:49;103107.63;;;4.25;100.00
19831;BME280;10076;52.008;4.708;2023-03-01T02:53:02;103092.00;;;4.19;100.00
19831;BME280;10076;52.008;4.708;2023-03-01T02:55:29;103098.97;;;4.18;100.00
19831;BME280;10076;52.008;4.708;2023-03-01T02:57:55;103093.72;;;4.20;100.00
19831;BME280;10076;52.008;4.708;2023-03-01T03:00:24;103092.03;;;4.13;100.00
19831;BME280;10076;52.008;4.708;2023-03-01T03:02:53;103097.25;;;4.17;100.00
19831;BME280;10076;52.008;4.708;2023-03-01T03:05:25;103087.63;;;4.18;100.00
19831;BME280;10076;52.008;4.708;2023-03-01T03:07:51;103086.75;;;4.19;100.00
19831;BME280;10076;52.008;4.708;2023-03-01T03:10:26;103079.78;;;4.18;100.00
19831;BME280;10076;52.008;4.708;2023-03-01T03:13:00;103079.84;;;4.15;100.00
19831;BME280;10076;52.008;4.708;2023-03-01T03:15:26;103083.31;;;4.14;100.00
19831;BME280;10076;52.008;4.708;2023-03-01T03:17:52;103079.84;;;4.12;100.00
19831;BME280;10076;52.008;4.708;2023-03-01T03:20:20;103081.69;;;4.04;100.00
19831;BME280;10076;52.008;4.708;2023-03-01T03:22:50;103073.88;;;3.98;100.00
19831;BME280;10076;52.008;4.708;2023-03-01T03:25:17;103078.22;;;3.99;100.00
19831;BME280;10076;52.008;4.708;2023-03-01T03:27:44;103073.88;;;3.97;100.00
19831;BME280;10076;52.008;4.708;2023-03-01T03:30:12;103072.22;;;3.90;100.00
19831;BME280;10076;52.008;4.708;2023-03-01T03:32:40;103082.75;;;3.76;100.00
19831;BME280;10076;52.008;4.708;2023-03-01T03:35:07;103074.00;;;3.83;100.00
19831;BME280;10076;52.008;4.708;2023-03-01T03:37:37;103077.47;;;3.85;100.00
19831;BME280;10076;52.008;4.708;2023-03-01T03:40:21;103075.69;;;3.87;100.00
19831;BME280;10076;52.008;4.708;2023-03-01T03:42:47;103070.47;;;3.86;100.00
19831;BME280;10076;52.008;4.708;2023-03-01T03:45:13;103071.31;;;3.94;100.00
19831;BME280;10076;52.008;4.708;2023-03-01T03:47:38;103070.44;;;3.90;100.00
19831;BME280;10076;52.008;4.708;2023-03-01T03:50:04;103067.88;;;3.86;100.00
19831;BME280;10076;52.008;4.708;2023-03-01T03:52:29;103065.25;;;3.87;100.00
19831;BME280;10076;52.008;4.708;2023-03-01T03:54:54;103061.75;;;3.88;100.00
19831;BME280;10076;52.008;4.708;2023-03-01T03:57:20;103059.19;;;3.84;100.00
19831;BME280;10076;52.008;4.708;2023-03-01T03:59:46;103062.66;;;3.86;100.00
19831;BME280;10076;52.008;4.708;2023-03-01T04:02:11;103060.97;;;3.80;100.00
19831;BME280;10076;52.008;4.708;2023-03-01T04:04:36;103054.88;;;3.81;100.00
19831;BME280;10076;52.008;4.708;2023-03-01T04:07:02;103056.66;;;3.73;100.00
19831;BME280;10076;52.008;4.708;2023-03-01T04:09:27;103062.72;;;3.74;100.00
19831;BME280;10076;52.008;4.708;2023-03-01T04:11:55;103060.97;;;3.80;100.00
19831;BME280;10076;52.008;4.708;2023-03-01T04:14:20;103063.59;;;3.77;100.00
19831;BME280;10076;52.008;4.708;2023-03-01T04:16:45;103068.03;;;3.65;100.00
19831;BME280;10076;52.008;4.708;2023-03-01T04:19:11;103073.31;;;3.59;100.00
19831;BME280;10076;52.008;4.708;2023-03-01T04:21:36;103066.34;;;3.56;100.00
19831;BME280;10076;52.008;4.708;2023-03-01T04:24:02;103067.22;;;3.60;100.00
19831;BME280;10076;52.008;4.708;2023-03-01T04:26:28;103066.31;;;3.62;100.00
19831;BME280;10076;52.008;4.708;2023-03-01T04:28:54;103063.72;;;3.62;100.00
19831;BME280;10076;52.008;4.708;2023-03-01T04:31:20;103059.34;;;3.58;100.00
19831;BME280;10076;52.008;4.708;2023-03-01T04:33:54;103064.59;;;3.58;100.00
19831;BME280;10076;52.008;4.708;2023-03-01T04:36:25;103058.53;;;3.53;100.00
19831;BME280;10076;52.008;4.708;2023-03-01T04:38:50;103058.50;;;3.58;100.00
19831;BME280;10076;52.008;4.708;2023-03-01T04:41:19;103050.69;;;3.56;100.00
19831;BME280;10076;52.008;4.708;2023-03-01T04:43:45;103055.00;;;3.60;100.00
19831;BME280;10076;52.008;4.708;2023-03-01T04:46:12;103052.41;;;3.56;100.00
19831;BME280;10076;52.008;4.708;2023-03-01T04:48:39;103040.31;;;3.46;100.00
19831;BME280;10076;52.008;4.708;2023-03-01T04:51:05;103042.97;;;3.39;100.00
19831;BME280;10076;52.008;4.708;2023-03-01T04:53:31;103044.69;;;3.41;100.00
19831;BME280;10076;52.008;4.708;2023-03-01T04:55:58;103037.72;;;3.41;100.00
19831;BME280;10076;52.008;4.708;2023-03-01T04:58:24;103035.97;;;3.43;100.00
19831;BME280;10076;52.008;4.708;2023-03-01T05:00:50;103029.91;;;3.39;100.00
19831;BME280;10076;52.008;4.708;2023-03-01T05:03:15;103026.41;;;3.38;100.00
19831;BME280;10076;52.008;4.708;2023-03-01T05:05:44;103025.56;;;3.38;100.00
19831;BME280;10076;52.008;4.708;2023-03-01T05:08:10;103026.41;;;3.38;100.00
19831;BME280;10076;52.008;4.708;2023-03-01T05:10:44;103024.75;;;3.31;100.00
19831;BME280;10076;52.008;4.708;2023-03-01T05:13:11;103029.94;;;3.33;100.00
19831;BME280;10076;52.008;4.708;2023-03-01T05:15:38;103013.47;;;3.28;100.00
19831;BME280;10076;52.008;4.708;2023-03-01T05:18:04;103016.94;;;3.27;100.00
19831;BME280;10076;52.008;4.708;2023-03-01T05:20:32;103016.91;;;3.30;100.00
19831;BME280;10076;52.008;4.708;2023-03-01T05:23:01;103014.31;;;3.27;100.00
19831;BME280;10076;52.008;4.708;2023-03-01T05:25:31;103006.50;;;3.22;100.00
19831;BME280;10076;52.008;4.708;2023-03-01T05:27:58;103003.88;;;3.28;100.00
19831;BME280;10076;52.008;4.708;2023-03-01T05:30:24;103003.06;;;3.22;100.00
19831;BME280;10076;52.008;4.708;2023-03-01T05:32:50;103000.47;;;3.13;100.00
19831;BME280;10076;52.008;4.708;2023-03-01T05:35:21;102985.69;;;3.18;100.00
19831;BME280;10076;52.008;4.708;2023-03-01T05:37:47;102974.31;;;3.25;100.00
19831;BME280;10076;52.008;4.708;2023-03-01T05:40:16;102976.94;;;3.22;100.00
19831;BME280;10076;52.008;4.708;2023-03-01T05:42:44;102976.97;;;3.17;100.00
19831;BME280;10076;52.008;4.708;2023-03-01T05:45:09;102969.13;;;3.19;100.00
19831;BME280;10076;52.008;4.708;2023-03-01T05:47:35;102964.78;;;3.19;100.00
19831;BME280;10076;52.008;4.708;2023-03-01T05:50:01;102966.59;;;3.10;100.00
19831;BME280;10076;52.008;4.708;2023-03-01T05:52:26;102974.41;;;3.11;100.00
19831;BME280;10076;52.008;4.708;2023-03-01T05:54:52;102977.91;;;3.12;100.00
19831;BME280;10076;52.008;4.708;2023-03-01T05:57:17;102972.69;;;3.04;100.00
19831;BME280;10076;52.008;4.708;2023-03-01T05:59:42;102972.69;;;3.04;100.00
19831;BME280;10076;52.008;4.708;2023-03-01T06:02:08;102968.38;;;3.02;100.00
19831;BME280;10076;52.008;4.708;2023-03-01T06:04:33;102969.25;;;3.02;100.00
19831;BME280;10076;52.008;4.708;2023-03-01T06:06:58;102970.13;;;3.00;100.00
19831;BME280;10076;52.008;4.708;2023-03-01T06:09:24;102981.47;;;2.97;100.00
19831;BME280;10076;52.008;4.708;2023-03-01T06:11:51;102979.75;;;2.90;100.00
19831;BME280;10076;52.008;4.708;2023-03-01T06:14:16;102975.41;;;2.94;100.00
19831;BME280;10076;52.008;4.708;2023-03-01T06:16:41;102971.91;;;2.96;100.00
19831;BME280;10076;52.008;4.708;2023-03-01T06:19:07;102975.44;;;2.83;100.00
19831;BME280;10076;52.008;4.708;2023-03-01T06:21:32;102976.25;;;2.90;100.00
19831;BME280;10076;52.008;4.708;2023-03-01T06:23:57;102978.00;;;2.92;100.00
19831;BME280;10076;52.008;4.708;2023-03-01T06:26:22;102979.69;;;3.01;100.00
19831;BME280;10076;52.008;4.708;2023-03-01T06:28:48;102988.41;;;3.00;100.00
19831;BME280;10076;52.008;4.708;2023-03-01T06:31:13;102985.75;;;3.04;100.00
19831;BME280;10076;52.008;4.708;2023-03-01T06:33:38;102986.69;;;2.97;100.00
19831;BME280;10076;52.008;4.708;2023-03-01T06:36:04;102984.09;;;2.93;100.00
19831;BME280;10076;52.008;4.708;2023-03-01T06:38:29;102993.66;;;2.89;100.00
19831;BME280;10076;52.008;4.708;2023-03-01T06:40:54;102989.34;;;2.84;100.00
19831;BME280;10076;52.008;4.708;2023-03-01T06:43:21;102996.34;;;2.74;100.00
19831;BME280;10076;52.008;4.708;2023-03-01T06:45:47;102993.66;;;2.86;100.00
19831;BME280;10076;52.008;4.708;2023-03-01T06:48:12;102985.81;;;2.91;100.00
19831;BME280;10076;52.008;4.708;2023-03-01T06:50:38;102984.13;;;2.87;100.00
19831;BME280;10076;52.008;4.708;2023-03-01T06:53:03;102993.66;;;2.94;100.00
19831;BME280;10076;52.008;4.708;2023-03-01T06:55:30;102994.47;;;3.00;100.00
19831;BME280;10076;52.008;4.708;2023-03-01T06:57:56;102987.53;;;2.95;100.00
19831;BME280;10076;52.008;4.708;2023-03-01T07:00:22;102985.78;;;2.97;100.00
19831;BME280;10076;52.008;4.708;2023-03-01T07:02:48;102988.41;;;3.00;100.00
19831;BME280;10076;52.008;4.708;2023-03-01T07:05:13;102995.28;;;3.10;100.00
19831;BME280;10076;52.008;4.708;2023-03-01T07:07:38;102990.06;;;3.10;100.00
19831;BME280;10076;52.008;4.708;2023-03-01T07:10:04;102992.63;;;3.22;100.00
19831;BME280;10076;52.008;4.708;2023-03-01T07:12:29;102991.78;;;3.17;100.00
19831;BME280;10076;52.008;4.708;2023-03-01T07:14:55;102994.34;;;3.23;100.00
19831;BME280;10076;52.008;4.708;2023-03-01T07:17:20;102991.69;;;3.30;100.00
19831;BME280;10076;52.008;4.708;2023-03-01T07:19:45;102995.09;;;3.37;100.00
19831;BME280;10076;52.008;4.708;2023-03-01T07:22:11;103002.03;;;3.46;100.00
19831;BME280;10076;52.008;4.708;2023-03-01T07:24:36;102991.47;;;3.57;100.00
19831;BME280;10076;52.008;4.708;2023-03-01T07:27:01;102997.59;;;3.54;100.00
19831;BME280;10076;52.008;4.708;2023-03-01T07:29:27;102995.91;;;3.49;100.00
19831;BME280;10076;52.008;4.708;2023-03-01T07:31:54;102999.31;;;3.55;100.00
19831;BME280;10076;52.008;4.708;2023-03-01T07:34:19;103002.75;;;3.62;100.00
19831;BME280;10076;52.008;4.708;2023-03-01T07:36:44;103000.94;;;3.71;100.00
19831;BME280;10076;52.008;4.708;2023-03-01T07:39:11;102995.69;;;3.74;100.00
19831;BME280;10076;52.008;4.708;2023-03-01T07:41:36;103002.66;;;3.75;100.00
19831;BME280;10076;52.008;4.708;2023-03-01T07:44:02;102997.44;;;3.75;100.00
19831;BME280;10076;52.008;4.708;2023-03-01T07:46:27;103000.88;;;3.80;100.00
19831;BME280;10076;52.008;4.708;2023-03-01T07:48:52;103003.47;;;3.80;100.00
19831;BME280;10076;52.008;4.708;2023-03-01T07:51:18;103004.22;;;3.93;100.00
19831;BME280;10076;52.008;4.708;2023-03-01T07:53:46;103000.59;;;4.07;100.00
19831;BME280;10076;52.008;4.708;2023-03-01T07:56:13;103000.53;;;4.14;100.00
19831;BME280;10076;52.008;4.708;2023-03-01T07:58:41;103001.44;;;4.10;100.00
19831;BME280;10076;52.008;4.708;2023-03-01T08:01:10;102999.63;;;4.17;100.00
19831;BME280;10076;52.008;4.708;2023-03-01T08:03:36;102998.50;;;4.40;100.00
19831;BME280;10076;52.008;4.708;2023-03-01T08:06:03;102996.69;;;4.47;100.00
19831;BME280;10076;52.008;4.708;2023-03-01T08:08:29;102997.41;;;4.61;100.00
19831;BME280;10076;52.008;4.708;2023-03-01T08:10:59;102997.19;;;4.78;100.00
19831;BME280;10076;52.008;4.708;2023-03-01T08:13:27;102998.06;;;4.75;100.00
19831;BME280;10076;52.008;4.708;2023-03-01T08:15:53;103000.63;;;4.80;100.00
19831;BME280;10076;52.008;4.708;2023-03-01T08:18:19;102993.34;;;5.02;100.00
19831;BME280;10076;52.008;4.708;2023-03-01T08:20:45;102998.47;;;5.09;100.00
19831;BME280;10076;52.008;4.708;2023-03-01T08:23:10;102996.41;;;5.34;100.00
19831;BME280;10076;52.008;4.708;2023-03-01T08:25:36;102994.53;;;5.40;100.00
19831;BME280;10076;52.008;4.708;2023-03-01T08:28:01;102992.66;;;5.49;100.00
19831;BME280;10076;52.008;4.708;2023-03-01T08:30:27;102998.72;;;5.53;100.00
19831;BME280;10076;52.008;4.708;2023-03-01T08:32:52;102992.28;;;5.70;100.00
19831;BME280;10076;52.008;4.708;2023-03-01T08:35:18;102981.47;;;5.93;100.00
19831;BME280;10076;52.008;4.708;2023-03-01T08:37:44;102994.75;;;6.29;100.00
19831;BME280;10076;52.008;4.708;2023-03-01T08:40:10;102983.50;;;6.66;100.00
19831;BME280;10076;52.008;4.708;2023-03-01T08:42:39;102978.59;;;6.92;100.00
19831;BME280;10076;52.008;4.708;2023-03-01T08:45:04;102979.88;;;7.11;100.00
19831;BME280;10076;52.008;4.708;2023-03-01T08:47:30;102984.59;;;7.35;100.00
19831;BME280;10076;52.008;4.708;2023-03-01T08:49:55;102993.03;;;7.49;100.00
19831;BME280;10076;52.008;4.708;2023-03-01T08:52:21;102983.31;;;7.52;100.00
19831;BME280;10076;52.008;4.708;2023-03-01T08:54:49;102984.09;;;7.55;100.00
19831;BME280;10076;52.008;4.708;2023-03-01T08:57:14;102976.16;;;7.57;100.00
19831;BME280;10076;52.008;4.708;2023-03-01T08:59:40;102974.09;;;7.69;100.00
19831;BME280;10076;52.008;4.708;2023-03-01T09:02:12;102974.47;;;7.89;100.00
19831;BME280;10076;52.008;4.708;2023-03-01T09:04:37;102973.84;;;8.45;100.00
19831;BME280;10076;52.008;4.708;2023-03-01T09:07:03;102976.06;;;9.43;100.00
19831;BME280;10076;52.008;4.708;2023-03-01T09:09:28;102972.16;;;10.78;100.00
19831;BME280;10076;52.008;4.708;2023-03-01T09:11:53;102969.63;;;12.04;100.00
19831;BME280;10076;52.008;4.708;2023-03-01T09:14:19;102966.41;;;13.12;100.00
19831;BME280;10076;52.008;4.708;2023-03-01T09:16:44;102975.19;;;14.36;100.00
19831;BME280;10076;52.008;4.708;2023-03-01T09:19:10;102965.53;;;15.75;99.15
19831;BME280;10076;52.008;4.708;2023-03-01T09:21:37;102975.09;;;16.79;91.83
19831;BME280;10076;52.008;4.708;2023-03-01T09:24:02;102971.28;;;16.97;84.01
19831;BME280;10076;52.008;4.708;2023-03-01T09:26:28;102963.50;;;17.34;78.91
19831;BME280;10076;52.008;4.708;2023-03-01T09:28:55;102958.78;;;18.66;76.19
19831;BME280;10076;52.008;4.708;2023-03-01T09:31:22;102961.63;;;19.36;69.03
19831;BME280;10076;52.008;4.708;2023-03-01T09:33:49;102965.91;;;20.09;64.83
19831;BME280;10076;52.008;4.708;2023-03-01T09:36:18;102960.41;;;20.55;60.06
19831;BME280;10076;52.008;4.708;2023-03-01T09:38:43;102957.75;;;20.77;58.85
19831;BME280;10076;52.008;4.708;2023-03-01T09:41:11;102966.59;;;21.85;56.69
19831;BME280;10076;52.008;4.708;2023-03-01T09:44:27;102961.72;;;22.31;54.01
19831;BME280;10076;52.008;4.708;2023-03-01T09:46:55;102967.19;;;23.49;49.57
19831;BME280;10076;52.008;4.708;2023-03-01T09:49:25;102965.72;;;23.74;48.98
19831;BME280;10076;52.008;4.708;2023-03-01T09:54:36;102971.19;;;24.94;46.90
19831;BME280;10076;52.008;4.708;2023-03-01T09:57:13;102968.16;;;24.70;42.77
19831;BME280;10076;52.008;4.708;2023-03-01T09:59:49;102962.53;;;24.54;41.67
19831;BME280;10076;52.008;4.708;2023-03-01T10:08:19;102958.97;;;25.26;41.84
19831;BME280;10076;52.008;4.708;2023-03-01T10:10:49;102953.38;;;26.07;41.30
19831;BME280;10076;52.008;4.708;2023-03-01T10:13:19;102951.50;;;26.25;39.73
19831;BME280;10076;52.008;4.708;2023-03-01T10:15:58;102949.75;;;25.98;38.85
19831;BME280;10076;52.008;4.708;2023-03-01T10:18:29;102952.25;;;26.60;39.97
19831;BME280;10076;52.008;4.708;2023-03-01T10:21:00;102940.44;;;27.43;37.79
19831;BME280;10076;52.008;4.708;2023-03-01T10:23:28;102940.84;;;27.80;37.98
19831;BME280;10076;52.008;4.708;2023-03-01T10:29:02;102938.63;;;27.60;36.46
19831;BME280;10076;52.008;4.708;2023-03-01T10:31:51;102936.09;;;27.66;36.12
19831;BME280;10076;52.008;4.708;2023-03-01T10:34:32;102929.81;;;27.17;36.98
19831;BME280;10076;52.008;4.708;2023-03-01T10:39:34;102922.16;;;28.17;35.59
19831;BME280;10076;52.008;4.708;2023-03-01T10:42:00;102922.84;;;28.11;35.26
19831;BME280;10076;52.008;4.708;2023-03-01T10:44:41;102924.38;;;28.13;35.46
19831;BME280;10076;52.008;4.708;2023-03-01T10:47:22;102919.53;;;28.79;35.57
19831;BME280;10076;52.008;4.708;2023-03-01T10:50:03;102918.19;;;28.67;33.93
19831;BME280;10076;52.008;4.708;2023-03-01T10:55:23;102909.78;;;27.91;33.41
19831;BME280;10076;52.008;4.708;2023-03-01T10:57:49;102899.19;;;27.32;33.92
19831;BME280;10076;52.008;4.708;2023-03-01T11:00:24;102888.38;;;28.19;33.71
19831;BME280;10076;52.008;4.708;2023-03-01T11:05:24;102888.72;;;28.86;32.49
19831;BME280;10076;52.008;4.708;2023-03-01T11:07:54;102884.19;;;28.63;32.46
19831;BME280;10076;52.008;4.708;2023-03-01T11:10:27;102880.09;;;28.67;32.31
19831;BME280;10076;52.008;4.708;2023-03-01T11:12:56;102883.88;;;29.27;31.77
19831;BME280;10076;52.008;4.708;2023-03-01T11:15:30;102859.78;;;29.68;32.71
19831;BME280;10076;52.008;4.708;2023-03-01T11:17:56;102869.28;;;29.50;30.54
19831;BME280;10076;52.008;4.708;2023-03-01T11:20:55;102860.22;;;30.45;30.88
19831;BME280;10076;52.008;4.708;2023-03-01T11:23:15;102852.38;;;30.85;29.46
19831;BME280;10076;52.008;4.708;2023-03-01T11:25:43;102852.09;;;30.95;29.76
19831;BME280;10076;52.008;4.708;2023-03-01T11:28:16;102851.66;;;30.77;29.50
19831;BME280;10076;52.008;4.708;2023-03-01T11:36:13;102858.16;;;30.76;30.04
19831;BME280;10076;52.008;4.708;2023-03-01T11:38:41;102854.50;;;31.19;29.22
19831;BME280;10076;52.008;4.708;2023-03-01T11:41:13;102846.25;;;32.02;28.63
19831;BME280;10076;52.008;4.708;2023-03-01T11:54:13;102841.69;;;31.82;26.08
19831;BME280;10076;52.008;4.708;2023-03-01T11:56:57;102825.34;;;31.88;27.08
19831;BME280;10076;52.008;4.708;2023-03-01T11:59:32;102820.09;;;31.24;27.46
19831;BME280;10076;52.008;4.708;2023-03-01T12:10:45;102826.56;;;33.66;26.15
19831;BME280;10076;52.008;4.708;2023-03-01T12:24:23;102802.91;;;32.60;25.25
19831;BME280;10076;52.008;4.708;2023-03-01T12:34:55;102774.38;;;31.81;24.63
19831;BME280;10076;52.008;4.708;2023-03-01T12:37:39;102781.56;;;31.40;26.19
19831;BME280;10076;52.008;4.708;2023-03-01T12:40:43;102787.97;;;32.69;24.88
19831;BME280;10076;52.008;4.708;2023-03-01T12:51:03;102776.31;;;34.24;23.86
19831;BME280;10076;52.008;4.708;2023-03-01T12:53:40;102777.59;;;34.08;24.06
19831;BME280;10076;52.008;4.708;2023-03-01T12:56:28;102777.00;;;33.68;23.91
19831;BME280;10076;52.008;4.708;2023-03-01T13:07:19;102770.22;;;34.72;23.85
19831;BME280;10076;52.008;4.708;2023-03-01T13:09:55;102774.31;;;34.94;24.63
19831;BME280;10076;52.008;4.708;2023-03-01T13:17:49;102761.28;;;36.29;23.00
19831;BME280;10076;52.008;4.708;2023-03-01T13:20:17;102747.31;;;35.70;23.15
19831;BME280;10076;52.008;4.708;2023-03-01T13:22:45;102746.09;;;36.44;23.14
19831;BME280;10076;52.008;4.708;2023-03-01T13:25:20;102740.00;;;37.12;22.56
19831;BME280;10076;52.008;4.708;2023-03-01T13:27:46;102727.69;;;37.78;22.38
19831;BME280;10076;52.008;4.708;2023-03-01T13:35:49;102705.22;;;37.52;21.95
19831;BME280;10076;52.008;4.708;2023-03-01T13:44:24;102688.50;;;35.71;22.06
19831;BME280;10076;52.008;4.708;2023-03-01T13:50:00;102690.13;;;35.30;22.05
19831;BME280;10076;52.008;4.708;2023-03-01T13:52:37;102681.44;;;35.33;22.28
19831;BME280;10076;52.008;4.708;2023-03-01T13:57:54;102681.22;;;35.77;22.40
19831;BME280;10076;52.008;4.708;2023-03-01T14:03:14;102673.66;;;36.08;22.58
19831;BME280;10076;52.008;4.708;2023-03-01T14:05:42;102671.28;;;36.29;22.78
19831;BME280;10076;52.008;4.708;2023-03-01T14:08:21;102670.63;;;37.15;22.11
19831;BME280;10076;52.008;4.708;2023-03-01T14:16:40;102651.31;;;37.04;21.41
19831;BME280;10076;52.008;4.708;2023-03-01T14:19:17;102650.63;;;36.97;21.01
19831;BME280;10076;52.008;4.708;2023-03-01T14:21:44;102644.63;;;37.23;20.42
19831;BME280;10076;52.008;4.708;2023-03-01T14:24:20;102640.41;;;36.97;20.11
19831;BME280;10076;52.008;4.708;2023-03-01T14:26:47;102642.97;;;36.40;20.74
19831;BME280;10076;52.008;4.708;2023-03-01T14:29:36;102622.88;;;35.92;21.15
19831;BME280;10076;52.008;4.708;2023-03-01T14:32:17;102615.94;;;36.19;21.57
19831;BME280;10076;52.008;4.708;2023-03-01T14:34:46;102608.47;;;37.31;21.99
19831;BME280;10076;52.008;4.708;2023-03-01T14:39:51;102604.28;;;37.90;21.67
19831;BME280;10076;52.008;4.708;2023-03-01T14:42:18;102596.94;;;37.33;21.13
19831;BME280;10076;52.008;4.708;2023-03-01T14:44:47;102602.34;;;37.29;20.94
19831;BME280;10076;52.008;4.708;2023-03-01T14:49:50;102602.69;;;36.57;20.94
19831;BME280;10076;52.008;4.708;2023-03-01T14:52:24;102594.22;;;36.59;21.21
19831;BME280;10076;52.008;4.708;2023-03-01T14:54:53;102594.94;;;36.77;20.93
19831;BME280;10076;52.008;4.708;2023-03-01T14:57:25;102588.78;;;36.41;21.33
19831;BME280;10076;52.008;4.708;2023-03-01T14:59:57;102591.72;;;36.80;21.04
19831;BME280;10076;52.008;4.708;2023-03-01T15:02:24;102587.84;;;35.99;21.28
19831;BME280;10076;52.008;4.708;2023-03-01T15:04:52;102591.16;;;35.72;21.61